Flight Track Log - Related Links

Times and Time Zones

All times are in EDT time to prevent confusion due to time zone crossing. See the HL-7615 flight status page for this flight to view local times or setup timezone preferences in your user account.

Time Position Orientation Groundspeed Altitude Reporting Facility
EDT Latitude Longitude Course Direction KTS MPH feet Rate Location/Type
Thu 07:19:12 AM 37.4960 126.1820 226° Southwest 275 316 10,300  Level FlightAware ADS-B
Thu 07:19:22 AM 37.4810 126.1680 217° Southwest 290 334 10,900 1,600 Climbing FlightAware ADS-B
Thu 07:19:57 AM 37.4350 126.1530 195° South 340 391 11,500 1,565 Climbing FlightAware ADS-B
Thu 07:21:17 AM 37.3270 126.2560 143° Southeast 408 470 13,900 2,950 Climbing FlightAware ADS-B
Thu 07:21:57 AM 37.2700 126.3340 133° Southeast 422 486 17,400 3,675 Climbing FlightAware ADS-B
Thu 07:22:37 AM 37.2150 126.4120 132° Southeast 437 503 18,800 1,624 Climbing FlightAware ADS-B
Thu 07:23:22 AM 37.1350 126.4700 150° Southeast 427 491 19,700 655 Climbing FlightAware ADS-B
Thu 07:24:27 AM 37.0260 126.5270 157° South 444 511 20,000 164 Climbing FlightAware ADS-B
Thu 07:25:12 AM 36.9520 126.5810 150° Southeast 444 511 20,000  Level FlightAware ADS-B
Thu 07:25:52 AM 36.8920 126.6250 150° Southeast 444 511 20,000  Level FlightAware ADS-B
Thu 07:26:32 AM 36.8310 126.6680 151° Southeast 444 511 20,000  Level FlightAware ADS-B
Thu 07:27:22 AM 36.7560 126.7230 150° Southeast 444 511 20,000  Level FlightAware ADS-B
Thu 07:28:02 AM 36.6950 126.7660 151° Southeast 444 511 20,000 340 Level FlightAware ADS-B
Thu 07:30:00 AM 36.5645 126.6236 221° Southwest  Level Estimated
Thu 07:31:00 AM 36.4981 126.5514 221° Southwest  Level Estimated
Thu 07:32:00 AM 36.4317 126.4793 221° Southwest  Level Estimated
Thu 07:33:00 AM 36.3652 126.4073 221° Southwest  Level Estimated
Thu 07:34:00 AM 36.2987 126.3355 221° Southwest  Level Estimated
Thu 07:35:00 AM 36.2321 126.2638 221° Southwest  Level Estimated
Thu 07:36:00 AM 36.1655 126.1922 221° Southwest  Level Estimated
Thu 07:37:00 AM 36.0988 126.1207 221° Southwest  Level Estimated
Thu 07:38:00 AM 36.0321 126.0493 221° Southwest  Level Estimated
Thu 07:39:00 AM 35.9654 125.9781 221° Southwest  Level Estimated
Thu 07:40:00 AM 35.8986 125.9070 221° Southwest  Level Estimated
Thu 07:41:00 AM 35.8317 125.8360 221° Southwest  Level Estimated
Thu 07:42:00 AM 35.7649 125.7651 221° Southwest  Level Estimated
Thu 07:43:00 AM 35.6979 125.6944 221° Southwest  Level Estimated
Thu 07:44:00 AM 35.6310 125.6237 221° Southwest  Level Estimated
Thu 07:45:00 AM 35.5640 125.5532 221° Southwest  Level Estimated
Thu 07:46:00 AM 35.4969 125.4828 221° Southwest  Level Estimated
Thu 07:47:00 AM 35.4299 125.4125 220° Southwest  Level Estimated
Thu 07:48:00 AM 35.3628 125.3423 220° Southwest  Level Estimated
Thu 07:49:00 AM 35.2956 125.2723 220° Southwest  Level Estimated
Thu 07:50:00 AM 35.2284 125.2024 220° Southwest  Level Estimated
Thu 07:51:00 AM 35.1612 125.1325 220° Southwest  Level Estimated
Thu 07:52:00 AM 35.0939 125.0628 220° Southwest  Level Estimated
Thu 07:53:00 AM 35.0266 124.9932 220° Southwest  Level Estimated
Thu 07:54:00 AM 34.9592 124.9238 220° Southwest  Level Estimated
Thu 07:55:00 AM 34.8918 124.8544 220° Southwest  Level Estimated
Thu 07:56:00 AM 34.8243 124.7852 220° Southwest  Level Estimated
Thu 07:57:00 AM 34.7569 124.7160 220° Southwest  Level Estimated
Thu 07:58:00 AM 34.6894 124.6470 220° Southwest  Level Estimated
Thu 07:59:00 AM 34.6218 124.5781 220° Southwest  Level Estimated
Thu 08:00:00 AM 34.5542 124.5093 220° Southwest  Level Estimated
Thu 08:01:00 AM 34.4866 124.4406 220° Southwest  Level Estimated
Thu 08:02:00 AM 34.4189 124.3721 220° Southwest  Level Estimated
Thu 08:03:00 AM 34.3512 124.3036 220° Southwest  Level Estimated
Thu 08:04:00 AM 34.2834 124.2353 220° Southwest  Level Estimated
Thu 08:05:00 AM 34.2156 124.1670 220° Southwest  Level Estimated
Thu 08:06:00 AM 34.1478 124.0989 220° Southwest  Level Estimated
Thu 08:07:00 AM 34.0800 124.0309 220° Southwest  Level Estimated
Thu 08:08:00 AM 34.0121 123.9630 220° Southwest  Level Estimated
Thu 08:09:00 AM 33.9441 123.8952 220° Southwest  Level Estimated
Thu 08:10:00 AM 33.8762 123.8275 220° Southwest  Level Estimated
Thu 08:11:00 AM 33.8082 123.7599 220° Southwest  Level Estimated
Thu 08:12:00 AM 33.7401 123.6924 220° Southwest  Level Estimated
Thu 08:13:00 AM 33.6720 123.6250 219° Southwest  Level Estimated
Thu 08:14:00 AM 33.6039 123.5577 219° Southwest  Level Estimated
Thu 08:15:00 AM 33.5357 123.4906 219° Southwest  Level Estimated
Thu 08:16:00 AM 33.4675 123.4235 219° Southwest  Level Estimated
Thu 08:17:00 AM 33.3993 123.3566 219° Southwest  Level Estimated
Thu 08:18:00 AM 33.3311 123.2897 219° Southwest  Level Estimated
Thu 08:19:00 AM 33.2628 123.2230 219° Southwest  Level Estimated
Thu 08:20:00 AM 33.1944 123.1564 219° Southwest  Level Estimated
Thu 08:21:00 AM 33.1261 123.0898 219° Southwest  Level Estimated
Thu 08:22:00 AM 33.0577 123.0234 219° Southwest  Level Estimated
Thu 08:23:00 AM 32.9892 122.9571 219° Southwest  Level Estimated
Thu 08:24:00 AM 32.9207 122.8909 219° Southwest  Level Estimated
Thu 08:25:00 AM 32.8522 122.8248 219° Southwest  Level Estimated
Thu 08:26:00 AM 32.7837 122.7587 219° Southwest  Level Estimated
Thu 08:26:07 AM 29.9080 125.1590 219° Southwest 415 478 40,000  Level FlightAware ADS-B
Thu 08:27:00 AM 32.7151 122.6928 219° Southwest  Level Estimated
Thu 08:27:17 AM 29.7730 125.1030 200° South 415 478 40,000  Level FlightAware ADS-B
Thu 08:28:12 AM 29.6760 125.0620 200° South 424 488 40,000  Level FlightAware ADS-B
Thu 08:28:57 AM 29.5920 125.0270 200° South 416 479 40,000  Level FlightAware ADS-B
Thu 08:29:57 AM 29.4970 124.9510 215° Southwest 399 459 40,000  Level FlightAware ADS-B
Thu 08:30:47 AM 29.4260 124.8930 215° Southwest 395 455 40,000  Level FlightAware ADS-B
Thu 08:31:32 AM 29.3530 124.8330 216° Southwest 395 455 40,000  Level FlightAware ADS-B
Thu 08:32:07 AM 29.3020 124.7920 215° Southwest 397 457 40,000  Level FlightAware ADS-B
Thu 08:32:57 AM 29.2380 124.7410 215° Southwest 397 457 40,000  Level FlightAware ADS-B
Thu 08:33:37 AM 29.1870 124.7000 215° Southwest 397 457 40,000  Level FlightAware ADS-B
Thu 08:34:47 AM 29.0650 124.6000 216° Southwest 395 455 40,000  Level FlightAware ADS-B
Thu 08:35:57 AM 28.9580 124.5130 215° Southwest 395 455 40,000  Level FlightAware ADS-B
Thu 08:36:52 AM 28.8760 124.4470 215° Southwest 396 456 40,000  Level FlightAware ADS-B
Thu 08:37:32 AM 28.8100 124.3950 215° Southwest 395 455 40,000  Level FlightAware ADS-B
Thu 08:38:17 AM 28.7430 124.3410 215° Southwest 395 455 40,000  Level FlightAware ADS-B
Thu 08:38:57 AM 28.6920 124.3010 215° Southwest 395 455 40,000  Level FlightAware ADS-B
Thu 08:39:37 AM 28.6410 124.2600 215° Southwest 395 455 40,000  Level FlightAware ADS-B
Thu 08:40:17 AM 28.5900 124.2200 215° Southwest 395 455 40,000  Level FlightAware ADS-B
Thu 08:40:57 AM 28.5400 124.1790 216° Southwest 395 455 40,000  Level FlightAware ADS-B
Thu 08:41:37 AM 28.4890 124.1380 215° Southwest 395 455 40,000  Level FlightAware ADS-B
Thu 08:42:27 AM 28.4250 124.0880 214° Southwest 395 455 40,000  Level FlightAware ADS-B
Thu 08:43:02 AM 28.2990 123.9870 215° Southwest 401 461 40,000  Level FlightAware ADS-B
Thu 08:44:02 AM 28.2160 123.9190 216° Southwest 401 461 40,000  Level FlightAware ADS-B
Thu 08:44:42 AM 28.1650 123.8770 216° Southwest 401 461 40,000  Level FlightAware ADS-B
Thu 08:45:32 AM 28.1010 123.8240 216° Southwest 401 461 40,000  Level FlightAware ADS-B
Thu 08:46:12 AM 28.0500 123.7820 216° Southwest 401 461 40,000  Level FlightAware ADS-B
Thu 08:46:52 AM 27.9990 123.7400 216° Southwest 401 461 40,000  Level FlightAware ADS-B
Thu 08:47:32 AM 27.9480 123.6980 216° Southwest 401 461 40,000  Level FlightAware ADS-B
Thu 08:48:22 AM 27.8840 123.6460 216° Southwest 401 461 40,000  Level FlightAware ADS-B
Thu 08:49:02 AM 27.8330 123.6040 216° Southwest 401 461 40,000  Level FlightAware ADS-B
Thu 08:49:42 AM 27.7820 123.5620 216° Southwest 401 461 40,000  Level FlightAware ADS-B
Thu 08:50:22 AM 27.7310 123.5200 216° Southwest 401 461 40,000  Level FlightAware ADS-B
Thu 08:51:02 AM 27.6800 123.4780 216° Southwest 401 461 40,000  Level FlightAware ADS-B
Thu 08:51:42 AM 27.6290 123.4370 215° Southwest 401 461 40,000  Level FlightAware ADS-B
Thu 08:52:32 AM 27.5650 123.3840 216° Southwest 401 461 40,000  Level FlightAware ADS-B
Thu 08:53:12 AM 27.5140 123.3420 216° Southwest 401 461 40,000  Level FlightAware ADS-B
Thu 08:53:57 AM 27.2810 123.1620 214° Southwest 416 479 40,000  Level FlightAware ADS-B
Thu 08:54:32 AM 27.2310 123.1230 215° Southwest 416 479 40,000  Level FlightAware ADS-B
Thu 08:55:22 AM 27.1480 123.0550 216° Southwest 419 482 40,000  Level FlightAware ADS-B
Thu 08:56:02 AM 27.0870 123.0070 215° Southwest 419 482 40,000  Level FlightAware ADS-B
Thu 08:56:42 AM 27.0210 122.9540 216° Southwest 419 482 40,000  Level FlightAware ADS-B
Thu 08:57:27 AM 26.9520 122.8990 215° Southwest 418 481 40,000  Level FlightAware ADS-B
Thu 08:58:07 AM 26.8870 122.8480 215° Southwest 417 480 40,000  Level FlightAware ADS-B
Thu 08:58:52 AM 26.8140 122.7900 215° Southwest 415 478 40,000  Level FlightAware ADS-B
Thu 08:59:32 AM 26.7530 122.7420 215° Southwest 415 478 40,000  Level FlightAware ADS-B
Thu 09:00:12 AM 26.6900 122.6920 215° Southwest 418 481 40,000  Level FlightAware ADS-B
Thu 09:00:57 AM 26.6190 122.6350 216° Southwest 420 483 40,000  Level FlightAware ADS-B
Thu 09:01:37 AM 26.5560 122.5860 215° Southwest 420 483 40,000  Level FlightAware ADS-B
Thu 09:02:22 AM 26.4850 122.5300 215° Southwest 419 482 40,000  Level FlightAware ADS-B
Thu 09:03:02 AM 26.4190 122.4780 215° Southwest 418 481 40,000  Level FlightAware ADS-B
Thu 09:03:42 AM 26.3570 122.4300 215° Southwest 408 470 40,000  Level FlightAware ADS-B
Thu 09:04:27 AM 26.2880 122.3760 215° Southwest 404 465 40,000  Level FlightAware ADS-B
Thu 09:05:07 AM 26.2270 122.3280 215° Southwest 405 466 40,000  Level FlightAware ADS-B
Thu 09:05:47 AM 26.1660 122.2800 215° Southwest 406 467 40,000  Level FlightAware ADS-B
Thu 09:06:32 AM 26.0970 122.2270 215° Southwest 408 470 40,000  Level FlightAware ADS-B
Thu 09:07:12 AM 26.0330 122.1770 215° Southwest 410 472 40,000  Level FlightAware ADS-B
Thu 09:07:57 AM 25.9630 122.1240 214° Southwest 409 471 40,000  Level FlightAware ADS-B
Thu 09:08:37 AM 25.9020 122.0780 214° Southwest 408 470 40,000  Level FlightAware ADS-B
Thu 09:09:17 AM 25.8400 122.0300 215° Southwest 407 468 40,000  Level FlightAware ADS-B
Thu 09:10:02 AM 25.7680 121.9750 215° Southwest 409 471 40,000  Level FlightAware ADS-B
Thu 09:10:42 AM 25.7040 121.9270 214° Southwest 409 471 40,000  Level FlightAware ADS-B
Thu 09:11:27 AM 25.6360 121.8750 215° Southwest 409 471 40,000  Level FlightAware ADS-B
Thu 09:12:07 AM 25.5740 121.8270 215° Southwest 408 470 40,000  Level FlightAware ADS-B
Thu 09:12:52 AM 25.5050 121.7730 215° Southwest 408 470 40,000  Level FlightAware ADS-B
Thu 09:13:32 AM 25.4430 121.7260 214° Southwest 410 472 40,000  Level FlightAware ADS-B
Thu 09:14:12 AM 25.3780 121.6760 215° Southwest 411 473 40,000  Level FlightAware ADS-B
Thu 09:14:57 AM 25.3090 121.6230 215° Southwest 413 475 40,000  Level FlightAware ADS-B
Thu 09:15:37 AM 25.2460 121.5750 215° Southwest 413 475 40,000  Level FlightAware ADS-B
Thu 09:16:22 AM 25.1800 121.5110 221° Southwest 399 459 40,000  Level FlightAware ADS-B
Thu 09:17:02 AM 25.1350 121.4480 232° Southwest 401 461 40,000  Level FlightAware ADS-B
Thu 09:17:42 AM 25.0880 121.3840 231° Southwest 400 460 40,000  Level FlightAware ADS-B
Thu 09:18:27 AM 25.0370 121.3150 231° Southwest 401 461 40,000  Level FlightAware ADS-B
Thu 09:19:07 AM 24.9910 121.2520 231° Southwest 402 463 40,000  Level FlightAware ADS-B
Thu 09:19:52 AM 24.9400 121.1830 231° Southwest 404 465 40,000  Level FlightAware ADS-B
Thu 09:20:27 AM 24.8970 121.1230 232° Southwest 405 466 40,000  Level FlightAware ADS-B
Thu 09:21:12 AM 24.8450 121.0520 231° Southwest 406 467 40,000  Level FlightAware ADS-B
Thu 09:21:52 AM 24.7960 120.9850 231° Southwest 406 467 40,000  Level FlightAware ADS-B
Thu 09:22:37 AM 24.7440 120.9140 231° Southwest 406 467 40,000  Level FlightAware ADS-B
Thu 09:23:17 AM 24.6990 120.8540 230° Southwest 406 467 40,000  Level FlightAware ADS-B
Thu 09:24:02 AM 24.6410 120.7750 231° Southwest 407 468 40,000  Level FlightAware ADS-B
Thu 09:24:42 AM 24.5980 120.7170 231° Southwest 408 470 40,000  Level FlightAware ADS-B
Thu 09:25:22 AM 24.5540 120.6570 231° Southwest 408 470 40,000  Level FlightAware ADS-B
Thu 09:26:07 AM 24.4970 120.5810 231° Southwest 410 472 40,000  Level FlightAware ADS-B
Thu 09:26:47 AM 24.4480 120.5290 224° Southwest 425 489 40,000  Level FlightAware ADS-B
Thu 09:27:27 AM 24.3720 120.4960 202° Southwest 440 506 40,000  Level FlightAware ADS-B
Thu 09:28:12 AM 24.2850 120.4590 201° Southwest 441 507 40,000  Level FlightAware ADS-B
Thu 09:28:47 AM 24.2170 120.4300 201° Southwest 446 513 40,000  Level FlightAware ADS-B
Thu 09:29:32 AM 24.1370 120.3730 213° Southwest 426 490 40,000  Level FlightAware ADS-B
Thu 09:30:17 AM 24.0800 120.3080 226° Southwest 420 483 40,000  Level FlightAware ADS-B
Thu 09:30:57 AM 24.0240 120.2440 226° Southwest 418 481 40,000  Level FlightAware ADS-B
Thu 09:31:42 AM 23.9690 120.1710 231° Southwest 419 482 40,000  Level FlightAware ADS-B
Thu 09:32:22 AM 23.9230 120.1060 232° Southwest 422 486 40,000  Level FlightAware ADS-B
Thu 09:33:07 AM 23.8720 120.0210 237° Southwest 421 484 40,000  Level FlightAware ADS-B
Thu 09:33:47 AM 23.8300 119.9520 236° Southwest 420 483 40,000  Level FlightAware ADS-B
Thu 09:34:32 AM 23.7810 119.8710 237° Southwest 419 482 40,000  Level FlightAware ADS-B
Thu 09:35:12 AM 23.7420 119.8080 236° Southwest 420 483 40,000  Level FlightAware ADS-B
Thu 09:35:52 AM 23.6980 119.7370 236° Southwest 421 484 40,000  Level FlightAware ADS-B
Thu 09:36:32 AM 23.6530 119.6620 237° Southwest 428 493 40,000  Level FlightAware ADS-B
Thu 09:37:17 AM 23.6010 119.5780 236° Southwest 431 496 40,000  Level FlightAware ADS-B
Thu 09:38:02 AM 23.5550 119.5040 236° Southwest 431 496 40,000  Level FlightAware ADS-B
Thu 09:38:42 AM 23.5100 119.4320 236° Southwest 434 499 40,000  Level FlightAware ADS-B
Thu 09:39:17 AM 23.4670 119.3610 237° Southwest 436 502 40,000  Level FlightAware ADS-B
Thu 09:40:02 AM 23.4160 119.2800 236° Southwest 434 499 40,000  Level FlightAware ADS-B
Thu 09:41:02 AM 23.3510 119.1750 236° Southwest 433 498 40,000  Level FlightAware ADS-B
Thu 09:41:42 AM 23.3040 119.1000 236° Southwest 434 499 40,000  Level FlightAware ADS-B
Thu 09:42:17 AM 23.2630 119.0340 236° Southwest 432 497 40,000  Level FlightAware ADS-B
Thu 09:43:02 AM 23.2130 118.9530 236° Southwest 432 497 40,000  Level FlightAware ADS-B
Thu 09:43:47 AM 23.1670 118.8790 236° Southwest 432 497 40,000  Level FlightAware ADS-B
Thu 09:44:32 AM 23.1150 118.7970 235° Southwest 431 496 40,000  Level FlightAware ADS-B
Thu 09:45:17 AM 23.0680 118.7220 236° Southwest 431 496 40,000  Level FlightAware ADS-B
Thu 09:45:57 AM 23.0230 118.6510 235° Southwest 431 496 40,000  Level FlightAware ADS-B
Thu 09:46:37 AM 22.9850 118.5910 235° Southwest 431 496 40,000  Level FlightAware ADS-B
Thu 09:47:22 AM 22.9240 118.4910 236° Southwest 428 493 40,000  Level FlightAware ADS-B
Thu 09:48:02 AM 22.8830 118.4220 237° Southwest 429 494 40,000  Level FlightAware ADS-B
Thu 09:48:42 AM 22.8400 118.3480 238° Southwest 429 494 40,000  Level FlightAware ADS-B
Thu 09:49:27 AM 22.7930 118.2690 237° Southwest 426 490 40,000  Level FlightAware ADS-B
Thu 09:50:17 AM 22.7380 118.1770 237° Southwest 426 490 40,000  Level FlightAware ADS-B
Thu 09:50:57 AM 22.6940 118.1030 237° Southwest 429 494 40,000  Level FlightAware ADS-B
Thu 09:51:47 AM 22.6400 118.0150 236° Southwest 428 493 40,000  Level FlightAware ADS-B
Thu 09:52:22 AM 22.6050 117.9560 237° Southwest 428 493 40,000  Level FlightAware ADS-B
Thu 09:53:12 AM 22.5480 117.8600 237° Southwest 428 493 40,000  Level FlightAware ADS-B
Thu 09:53:52 AM 22.5030 117.7850 237° Southwest 429 494 40,000  Level FlightAware ADS-B
Thu 09:54:32 AM 22.4620 117.7160 237° Southwest 430 495 40,000  Level FlightAware ADS-B
Thu 09:55:17 AM 22.4140 117.6350 237° Southwest 431 496 40,000  Level FlightAware ADS-B
Thu 09:55:52 AM 22.3810 117.5710 241° Southwest 428 493 40,000  Level FlightAware ADS-B
Thu 09:56:57 AM 22.3380 117.4520 249° West 428 493 40,000  Level FlightAware ADS-B
Thu 09:57:37 AM 22.3150 117.3840 250° West 428 493 40,000  Level FlightAware ADS-B
Thu 09:58:17 AM 22.2920 117.3150 250° West 428 493 40,000  Level FlightAware ADS-B
Thu 09:58:57 AM 22.2690 117.2470 250° West 428 493 40,000 -71 Level FlightAware ADS-B
Thu 09:59:07 AM 22.3270 117.1580 305° West 40,000 -133 Level FlightAware ADS-B
Thu 09:59:42 AM 22.3260 117.0760 269° West 437 503 39,900 -667 Descending FlightAware ADS-B
Thu 10:00:37 AM 22.3230 116.9660 268° West 412 474 39,000 -927 Descending FlightAware ADS-B
Thu 10:01:32 AM 22.3210 116.8610 269° West 400 460 38,200 -480 Descending FlightAware ADS-B
Thu 10:02:17 AM 22.3190 116.7800 268° West 400 460 38,200  Level FlightAware ADS-B
Thu 10:02:57 AM 22.3160 116.7120 267° West 400 460 38,200 -1,280 Level FlightAware ADS-B
Thu 10:03:42 AM 22.3160 116.6070 270° West 36,000 -1,745 Descending FlightAware ADS-B
Thu 10:04:47 AM 22.3130 116.4870 268° West 387 445 35,000 -571 Descending FlightAware ADS-B
Thu 10:05:27 AM 22.3110 116.4110 268° West 387 445 35,000  Level FlightAware ADS-B
Thu 10:06:17 AM 22.3080 116.3290 268° West 387 445 35,000  Level FlightAware ADS-B
Thu 10:06:57 AM 22.3060 116.2630 268° West 387 445 35,000  Level FlightAware ADS-B
Thu 10:07:37 AM 22.3040 116.1970 268° West 387 445 35,000  Level FlightAware ADS-B
Thu 10:08:17 AM 22.3020 116.1320 268° West 387 445 35,000  Level FlightAware ADS-B
Thu 10:08:57 AM 22.3000 116.0660 268° West 387 445 35,000  Level FlightAware ADS-B
Thu 10:09:47 AM 22.2970 115.9840 268° West 387 445 35,000  Level FlightAware ADS-B
Thu 10:10:27 AM 22.2950 115.9180 268° West 387 445 35,000  Level FlightAware ADS-B
Thu 10:11:07 AM 22.2930 115.8520 268° West 387 445 35,000  Level FlightAware ADS-B
Thu 10:11:47 AM 22.2910 115.7870 268° West 387 445 35,000  Level FlightAware ADS-B
Thu 10:12:27 AM 22.2880 115.7210 267° West 387 445 35,000  Level FlightAware ADS-B
Thu 10:13:17 AM 22.2860 115.6390 269° West 387 445 35,000  Level FlightAware ADS-B
Thu 10:13:57 AM 22.2840 115.5730 268° West 387 445 35,000  Level FlightAware ADS-B
Thu 10:14:37 AM 22.2820 115.5070 268° West 387 445 35,000  Level FlightAware ADS-B
Thu 10:17:00 AM 22.2868 115.2799 271° West  Level Estimated
Thu 10:18:00 AM 22.2887 115.1846 271° West  Level Estimated
Thu 10:19:00 AM 22.2906 115.0893 271° West  Level Estimated
Thu 10:20:00 AM 22.2924 114.9941 271° West  Level Estimated
Thu 10:21:00 AM 22.2941 114.8988 271° West  Level Estimated
Thu 10:22:00 AM 22.2958 114.8035 271° West  Level Estimated
Thu 10:23:00 AM 22.2974 114.7082 271° West  Level Estimated
Thu 10:24:00 AM 22.2990 114.6129 271° West  Level Estimated
Thu 10:25:00 AM 22.3006 114.5176 271° West  Level Estimated
Thu 10:26:00 AM 22.3020 114.4223 271° West  Level Estimated
Thu 10:27:00 AM 22.3034 114.3270 271° West  Level Estimated
Thu 10:28:00 AM 22.3048 114.2317 271° West  Level Estimated
Thu 10:29:00 AM 22.3061 114.1364 271° West  Level Estimated
Thu 10:30:00 AM 22.3074 114.0411 271° West  Level Estimated
Thu 10:31:00 AM 22.3085 113.9457 271° West  Level Estimated
Thu 10:32:00 AM 22.3089 113.9146 271° West  Level Estimated
Thu 10:33:00 AM 22.3089 113.9146 110° East  Level Estimated
Thu 10:34:00 AM 22.3089 113.9146 110° East  Level Estimated
Thu 10:35:00 AM 22.3089 113.9146 110° East  Level Estimated
Thu 10:36:00 AM 22.3089 113.9146 110° East  Level Estimated
Thu 10:37:00 AM 22.3089 113.9146 110° East  Level Estimated
Thu 10:38:00 AM 22.3089 113.9146 110° East  Level Estimated
Thu 10:39:00 AM 22.3089 113.9146 110° East  Level Estimated
Thu 10:40:00 AM 22.3089 113.9146 110° East  Level Estimated

Login

Don't have an account? Register now (free) for customized features, flight alerts, and more!